Time;durP1;ratioP1;P1;durP2;ratioP2;P2;SDS_P1;SDS_P2;PMS_P1;PMS_P2;Temp;Humidity;BMP_temperature;BMP_pressure;BME280_temperature;BME280_humidity;BME280_pressure;Samples;Min_cycle;Max_cycle;Signal;HPM_P1;HPM_P2
2022/12/16 00:00:22;;;;;;;77.13;31.25;;;;;;;-3.82;100.00;101021.50;5008890;28;20055;-95
2022/12/16 00:02:49;;;;;;;80.13;30.73;;;;;;;-3.90;100.00;100999.28;4990007;28;20030;-95
2022/12/16 00:05:14;;;;;;;80.28;30.80;;;;;;;-3.77;100.00;101009.03;5004232;28;20037;-95
2022/12/16 00:07:40;;;;;;;77.00;31.35;;;;;;;-3.78;100.00;100998.03;4995124;28;20030;-94
2022/12/16 00:10:06;;;;;;;79.95;30.48;;;;;;;-3.66;100.00;101011.16;5023675;28;20033;-95
2022/12/16 00:12:32;;;;;;;75.28;29.95;;;;;;;-3.76;100.00;100987.97;5022600;28;20038;-95
2022/12/16 00:14:57;;;;;;;86.72;33.22;;;;;;;-3.66;100.00;100997.63;4993588;28;20429;-94
2022/12/16 00:17:23;;;;;;;73.28;30.75;;;;;;;-3.63;100.00;101001.13;5010160;28;20030;-95
2022/12/16 00:19:48;;;;;;;77.90;30.35;;;;;;;-3.50;100.00;101020.16;5003504;28;20018;-95
2022/12/16 00:22:14;;;;;;;80.40;32.65;;;;;;;-3.50;100.00;101012.56;5013694;28;20025;-94
2022/12/16 00:24:39;;;;;;;73.07;31.88;;;;;;;-3.42;100.00;101011.16;5024504;28;20398;-95
2022/12/16 00:27:05;;;;;;;77.35;31.08;;;;;;;-3.29;100.00;101022.59;5007529;28;20026;-95
2022/12/16 00:29:30;;;;;;;74.78;30.55;;;;;;;-3.26;100.00;101023.53;5023860;28;20045;-93
2022/12/16 00:31:55;;;;;;;74.05;30.67;;;;;;;-3.29;100.00;101005.72;5017246;28;20033;-94
2022/12/16 00:34:21;;;;;;;72.97;31.75;;;;;;;-3.18;100.00;101008.59;5022649;28;20025;-95
2022/12/16 00:36:46;;;;;;;72.55;31.20;;;;;;;-3.27;100.00;100995.59;4999953;28;20390;-93
2022/12/16 00:39:12;;;;;;;73.35;30.58;;;;;;;-3.27;100.00;100988.88;5007255;28;20042;-94
2022/12/16 00:41:38;;;;;;;75.65;31.65;;;;;;;-3.12;100.00;101013.00;5008890;28;20025;-94
2022/12/16 00:44:04;;;;;;;83.72;32.30;;;;;;;-3.02;100.00;101015.06;5007488;28;20024;-94
2022/12/16 00:46:29;;;;;;;73.00;31.60;;;;;;;-3.18;100.00;100988.31;4994653;28;20141;-93
2022/12/16 00:48:55;;;;;;;75.75;31.05;;;;;;;-2.97;100.00;101014.41;5011768;28;20394;-94
2022/12/16 00:51:20;;;;;;;75.82;31.10;;;;;;;-3.02;100.00;101000.72;5020817;28;20034;-95
2022/12/16 00:53:46;;;;;;;78.05;31.83;;;;;;;-2.95;100.00;101004.31;5035263;28;20028;-94
2022/12/16 00:56:17;;;;;;;75.55;31.10;;;;;;;-3.01;100.00;100999.03;5014396;28;20381;-95
2022/12/16 00:58:42;;;;;;;76.13;31.67;;;;;;;-2.98;100.00;100987.31;5030298;28;20244;-94
2022/12/16 01:01:08;;;;;;;73.65;30.98;;;;;;;-2.93;100.00;100992.53;5029115;28;20029;-95
2022/12/16 01:03:34;;;;;;;76.72;31.60;;;;;;;-2.82;100.00;101012.38;5026633;28;20520;-95
2022/12/16 01:05:59;;;;;;;76.45;31.88;;;;;;;-2.71;100.00;101029.59;5011611;28;20112;-95
2022/12/16 01:08:25;;;;;;;74.75;31.35;;;;;;;-2.86;100.00;100999.53;5016927;28;20375;-96
2022/12/16 01:10:52;;;;;;;82.07;32.25;;;;;;;-2.67;100.00;101031.44;5015523;28;20040;-95
2022/12/16 01:13:19;;;;;;;72.85;29.55;;;;;;;-2.69;100.00;101038.13;5001723;28;20075;-95
2022/12/16 01:15:44;;;;;;;77.18;31.80;;;;;;;-2.68;100.00;101039.88;5017303;28;20680;-93
2022/12/16 01:18:10;;;;;;;74.40;31.10;;;;;;;-2.80;100.00;101020.03;5027219;28;20100;-93
2022/12/16 01:20:35;;;;;;;77.10;31.80;;;;;;;-2.76;100.00;101031.13;5017346;28;20109;-94
2022/12/16 01:23:01;;;;;;;74.50;31.00;;;;;;;-2.68;100.00;101032.25;5019517;28;20013;-94
2022/12/16 01:25:26;;;;;;;76.60;30.88;;;;;;;-2.64;100.00;101050.16;5031758;28;20033;-94
2022/12/16 01:27:52;;;;;;;77.70;32.17;;;;;;;-2.62;100.00;101043.47;5020069;28;20036;-94
2022/12/16 01:30:17;;;;;;;73.95;30.92;;;;;;;-2.61;100.00;101046.84;5016666;28;20029;-94
2022/12/16 01:32:43;;;;;;;72.80;30.85;;;;;;;-2.60;100.00;101046.06;4999109;28;20026;-94
2022/12/16 01:35:12;;;;;;;70.38;30.15;;;;;;;-2.62;100.00;101046.00;4996428;28;20179;-94
2022/12/16 01:37:37;;;;;;;77.97;30.65;;;;;;;-2.62;100.00;101048.53;5009683;28;20490;-94
2022/12/16 01:40:03;;;;;;;72.47;31.23;;;;;;;-2.58;100.00;101059.63;4994671;28;20053;-94
2022/12/16 01:42:30;;;;;;;70.20;30.30;;;;;;;-2.53;100.00;101075.88;5003637;28;20037;-94
2022/12/16 01:44:55;;;;;;;73.88;30.15;;;;;;;-2.62;100.00;101050.22;5016087;28;20044;-94
2022/12/16 01:47:26;;;;;;;75.78;30.67;;;;;;;-2.57;100.00;101054.59;5022364;28;20034;-94
2022/12/16 01:49:54;;;;;;;76.57;31.10;;;;;;;-2.46;100.00;101071.03;5016162;28;20029;-94
2022/12/16 01:52:28;;;;;;;76.38;31.48;;;;;;;-2.53;100.00;101059.00;5013677;28;20385;-94
2022/12/16 01:55:02;;;;;;;69.45;30.70;;;;;;;-2.51;100.00;101064.94;5023922;28;20058;-94
2022/12/16 01:57:37;;;;;;;71.10;31.40;;;;;;;-2.51;100.00;101056.47;5016516;28;20037;-94
2022/12/16 02:00:05;;;;;;;71.47;30.77;;;;;;;-2.38;100.00;101072.16;5015559;28;20468;-94
2022/12/16 02:02:30;;;;;;;77.47;31.17;;;;;;;-2.42;100.00;101070.34;5022680;28;20465;-95
2022/12/16 02:07:40;;;;;;;73.20;30.58;;;;;;;-2.36;100.00;101076.41;5011873;28;20036;-94
2022/12/16 02:10:06;;;;;;;73.60;30.58;;;;;;;-2.32;100.00;101085.88;4995219;28;20108;-95
2022/12/16 02:12:58;;;;;;;76.03;31.05;;;;;;;-2.33;100.00;101090.09;5014258;28;20065;-94
2022/12/16 02:15:41;;;;;;;76.82;29.88;;;;;;;-2.32;100.00;101093.47;5029925;28;20551;-94
2022/12/16 02:18:37;;;;;;;69.03;29.02;;;;;;;-2.26;100.00;101096.22;5006249;28;20490;-94
2022/12/16 02:21:24;;;;;;;72.30;30.58;;;;;;;-2.26;100.00;101092.00;5010220;28;20418;-94
2022/12/16 02:24:08;;;;;;;76.28;31.02;;;;;;;-2.28;100.00;101093.63;5004742;28;20090;-95
2022/12/16 02:27:00;;;;;;;71.63;31.13;;;;;;;-2.23;100.00;101094.63;5006896;28;20061;-93
2022/12/16 02:29:44;;;;;;;70.93;29.95;;;;;;;-2.21;100.00;101099.75;5039526;28;20029;-93
2022/12/16 02:32:24;;;;;;;72.55;30.35;;;;;;;-2.20;100.00;101091.34;5005396;28;20022;-93
2022/12/16 02:35:15;;;;;;;71.15;31.00;;;;;;;-2.22;100.00;101093.81;5032713;28;20050;-94
2022/12/16 02:37:55;;;;;;;73.38;30.92;;;;;;;-2.15;100.00;101100.81;5015504;28;20481;-93
2022/12/16 02:40:40;;;;;;;65.18;28.88;;;;;;;-2.15;100.00;101105.03;5019224;28;20209;-93
2022/12/16 02:43:16;;;;;;;72.68;30.77;;;;;;;-2.17;100.00;101102.44;5048250;28;20021;-94
2022/12/16 02:45:43;;;;;;;71.22;30.60;;;;;;;-2.19;100.00;101099.00;5005467;28;20045;-95
2022/12/16 02:48:08;;;;;;;73.00;30.45;;;;;;;-2.18;100.00;101113.41;5017981;28;20037;-95
2022/12/16 02:50:49;;;;;;;66.70;30.25;;;;;;;-2.13;100.00;101121.19;5008208;28;20030;-95
2022/12/16 02:53:17;;;;;;;78.82;30.52;;;;;;;-2.13;100.00;101114.44;4991955;28;20040;-95
2022/12/16 02:55:56;;;;;;;67.85;29.83;;;;;;;-2.10;100.00;101108.56;4996659;28;20026;-95
2022/12/16 02:58:36;;;;;;;73.38;30.23;;;;;;;-2.08;100.00;101109.47;5011990;28;20604;-95
2022/12/16 03:01:14;;;;;;;69.40;29.70;;;;;;;-2.04;100.00;101111.28;5018827;28;20402;-95
2022/12/16 03:03:48;;;;;;;69.07;29.20;;;;;;;-2.19;100.00;101080.38;4996064;28;20022;-95
2022/12/16 03:06:18;;;;;;;70.25;29.23;;;;;;;-2.04;100.00;101107.06;4994430;28;20040;-95
2022/12/16 03:08:51;;;;;;;68.38;29.85;;;;;;;-2.01;100.00;101111.41;4993333;28;20566;-95
2022/12/16 03:11:16;;;;;;;73.47;31.20;;;;;;;-2.02;100.00;101109.66;4988329;28;20045;-95
2022/12/16 03:13:48;;;;;;;69.10;31.52;;;;;;;-2.06;100.00;101107.88;5031970;28;20025;-94
2022/12/16 03:16:19;;;;;;;68.53;29.75;;;;;;;-2.04;100.00;101108.75;5031738;28;20512;-95
2022/12/16 03:18:49;;;;;;;74.15;31.77;;;;;;;-2.02;100.00;101114.75;5008640;28;20025;-96
2022/12/16 03:21:15;;;;;;;70.03;30.38;;;;;;;-2.02;100.00;101114.75;5007113;28;20605;-95
2022/12/16 03:23:50;;;;;;;74.85;30.80;;;;;;;-2.01;100.00;101114.81;5014201;28;20021;-94
2022/12/16 03:26:21;;;;;;;71.88;30.13;;;;;;;-2.09;100.00;101111.16;5020260;28;20030;-95
2022/12/16 03:29:16;;;;;;;65.32;29.58;;;;;;;-2.03;100.00;101118.09;5030349;28;20026;-95
2022/12/16 03:31:47;;;;;;;69.60;30.42;;;;;;;-2.09;100.00;101116.22;5011513;28;20044;-96
2022/12/16 03:34:27;;;;;;;68.95;31.13;;;;;;;-2.13;100.00;101126.25;5018083;28;20371;-95
2022/12/16 03:36:59;;;;;;;68.70;30.00;;;;;;;-2.27;100.00;101114.78;5008884;28;20081;-95
2022/12/16 03:39:26;;;;;;;64.85;28.88;;;;;;;-2.24;100.00;101128.44;5027509;28;20049;-95
2022/12/16 03:41:53;;;;;;;67.88;30.52;;;;;;;-2.27;100.00;101128.34;5013936;28;20017;-95
2022/12/16 03:44:20;;;;;;;71.53;29.75;;;;;;;-2.42;100.00;101115.16;5024877;28;20063;-95
2022/12/16 03:46:47;;;;;;;67.78;29.70;;;;;;;-2.25;100.00;101143.63;5014055;28;20025;-96
2022/12/16 03:49:12;;;;;;;69.63;30.35;;;;;;;-2.33;100.00;101132.38;5028239;28;20544;-95
2022/12/16 03:51:38;;;;;;;71.80;31.17;;;;;;;-2.30;100.00;101129.91;5012403;28;20030;-94
2022/12/16 03:54:03;;;;;;;70.35;31.20;;;;;;;-2.18;100.00;101137.91;4994568;28;20021;-95
2022/12/16 03:56:29;;;;;;;75.43;31.75;;;;;;;-2.12;100.00;101145.75;5005057;28;20022;-95
2022/12/16 03:58:54;;;;;;;74.05;31.27;;;;;;;-2.21;100.00;101125.16;5025690;28;20033;-95
2022/12/16 04:01:19;;;;;;;70.68;32.08;;;;;;;-2.07;100.00;101154.38;5007074;28;20081;-95
2022/12/16 04:03:45;;;;;;;76.20;31.15;;;;;;;-2.20;100.00;101121.78;5023500;28;20025;-95
2022/12/16 04:06:10;;;;;;;74.38;32.25;;;;;;;-2.15;100.00;101138.91;4990473;28;20077;-95
2022/12/16 04:08:36;;;;;;;74.65;31.27;;;;;;;-2.10;100.00;101157.66;5005983;28;20025;-95
2022/12/16 04:25:03;;;;;;;87.97;33.85;;;;;;;-1.92;100.00;101172.66;5010045;28;20092;-95
2022/12/16 04:27:29;;;;;;;85.50;34.85;;;;;;;-1.91;100.00;101176.06;5012166;28;20370;-95
